createdAt,value
2019-02-19T00:00:29.301Z,28.77
2019-02-19T00:02:57.495Z,29.55
2019-02-19T00:05:25.715Z,29.25
2019-02-19T00:07:53.910Z,29.75
2019-02-19T00:10:22.406Z,27.62
2019-02-19T00:12:50.882Z,29.72
2019-02-19T00:15:19.420Z,33.02
2019-02-19T00:17:47.851Z,29.23
2019-02-19T00:20:16.061Z,29.42
2019-02-19T00:22:44.260Z,29.50
2019-02-19T00:25:12.572Z,29.50
2019-02-19T00:27:41.149Z,31.33
2019-02-19T00:30:09.347Z,31.00
2019-02-19T00:32:37.555Z,28.52
2019-02-19T00:35:06.528Z,30.37
2019-02-19T00:37:34.741Z,30.90
2019-02-19T00:40:03.246Z,29.72
2019-02-19T00:42:31.764Z,27.45
2019-02-19T00:44:59.923Z,33.30
2019-02-19T00:47:28.131Z,31.50
2019-02-19T00:49:56.327Z,34.20
2019-02-19T00:52:27.611Z,31.15
2019-02-19T00:54:55.794Z,21.90
2019-02-19T00:57:24.003Z,29.42
2019-02-19T00:59:52.201Z,26.90
2019-02-19T01:02:20.406Z,29.27
2019-02-19T01:04:48.602Z,30.65
2019-02-19T01:07:16.814Z,34.18
2019-02-19T01:09:45.023Z,28.77
2019-02-19T01:12:13.224Z,32.30
2019-02-19T01:14:41.681Z,29.92
2019-02-19T01:17:09.888Z,33.90
2019-02-19T01:19:38.091Z,32.40
2019-02-19T01:22:06.295Z,29.10
2019-02-19T01:24:34.497Z,33.78
2019-02-19T01:27:02.693Z,31.10
2019-02-19T01:29:30.910Z,32.17
2019-02-19T01:31:59.091Z,32.40
2019-02-19T01:34:27.299Z,33.48
2019-02-19T01:36:55.491Z,31.25
2019-02-19T01:39:23.717Z,39.30
2019-02-19T01:41:51.908Z,32.40
2019-02-19T01:44:20.114Z,34.23
2019-02-19T01:46:48.303Z,28.87
2019-02-19T01:49:16.505Z,31.37
2019-02-19T01:51:44.706Z,36.13
2019-02-19T01:54:12.919Z,35.15
2019-02-19T01:56:41.119Z,38.30
2019-02-19T01:59:09.686Z,37.98
2019-02-19T02:01:37.909Z,35.52
2019-02-19T02:04:06.119Z,34.53
2019-02-19T02:06:34.315Z,35.40
2019-02-19T02:09:02.780Z,32.67
2019-02-19T02:11:30.993Z,32.98
2019-02-19T02:13:59.186Z,38.90
2019-02-19T02:16:27.675Z,37.05
2019-02-19T02:18:55.872Z,34.43
2019-02-19T02:21:24.083Z,33.40
2019-02-19T02:23:52.326Z,37.08
2019-02-19T02:26:20.534Z,35.25
2019-02-19T02:28:49.047Z,38.08
2019-02-19T02:31:17.248Z,39.65
2019-02-19T02:33:45.689Z,40.98
2019-02-19T02:36:13.898Z,46.40
2019-02-19T02:38:42.105Z,48.15
2019-02-19T02:41:10.310Z,36.00
2019-02-19T02:43:38.508Z,38.78
2019-02-19T02:46:06.716Z,36.77
2019-02-19T02:48:34.910Z,39.85
2019-02-19T02:51:03.114Z,40.40
2019-02-19T02:53:31.308Z,36.60
2019-02-19T02:55:59.505Z,37.30
2019-02-19T02:58:27.721Z,39.15
2019-02-19T03:00:55.992Z,44.20
2019-02-19T03:03:24.214Z,40.83
2019-02-19T03:06:01.735Z,41.42
2019-02-19T03:08:29.938Z,38.67
2019-02-19T03:10:58.134Z,46.13
2019-02-19T03:13:26.331Z,48.83
2019-02-19T03:16:02.221Z,45.00
2019-02-19T03:18:24.463Z,53.40
2019-02-19T03:20:53.092Z,43.33
2019-02-19T03:23:21.296Z,45.50
2019-02-19T03:25:49.497Z,45.65
2019-02-19T03:28:17.714Z,49.35
2019-02-19T03:30:45.914Z,46.68
2019-02-19T03:33:14.126Z,44.15
2019-02-19T03:35:42.308Z,41.10
2019-02-19T03:38:10.525Z,49.45
2019-02-19T03:40:38.704Z,45.85
2019-02-19T03:43:07.174Z,46.63
2019-02-19T03:45:35.368Z,49.00
2019-02-19T03:48:03.562Z,45.28
2019-02-19T03:50:31.772Z,47.90
2019-02-19T03:52:59.965Z,48.92
2019-02-19T03:55:28.204Z,47.33
2019-02-19T03:57:56.366Z,47.58
2019-02-19T04:00:24.581Z,48.80
2019-02-19T04:02:52.784Z,63.92
2019-02-19T04:05:20.984Z,42.85
2019-02-19T04:07:49.178Z,49.20
2019-02-19T04:10:17.384Z,48.13
2019-02-19T04:12:45.881Z,53.15
2019-02-19T04:15:14.089Z,54.83
2019-02-19T04:17:42.283Z,48.45
2019-02-19T04:20:10.495Z,53.92
2019-02-19T04:22:38.715Z,54.58
2019-02-19T04:25:06.924Z,55.25
2019-02-19T04:27:35.449Z,55.40
2019-02-19T04:30:04.632Z,53.58
2019-02-19T04:32:32.833Z,56.85
2019-02-19T04:35:01.059Z,50.85
2019-02-19T04:37:30.083Z,64.30
2019-02-19T04:39:58.336Z,59.58
2019-02-19T04:42:26.544Z,48.42
2019-02-19T04:44:54.743Z,58.50
2019-02-19T04:47:22.954Z,57.05
2019-02-19T04:49:51.151Z,56.02
2019-02-19T04:52:19.356Z,55.85
2019-02-19T04:54:47.907Z,58.45
2019-02-19T04:57:16.119Z,58.30
2019-02-19T04:59:44.775Z,66.47
2019-02-19T05:02:12.981Z,58.55
2019-02-19T05:04:41.171Z,70.30
2019-02-19T05:07:09.389Z,67.05
2019-02-19T05:09:37.578Z,63.58
2019-02-19T05:12:06.084Z,62.40
2019-02-19T05:14:34.299Z,68.35
2019-02-19T05:17:02.512Z,68.15
2019-02-19T05:19:30.712Z,65.37
2019-02-19T05:21:58.911Z,67.92
2019-02-19T05:24:27.448Z,58.92
2019-02-19T05:26:55.656Z,64.60
2019-02-19T05:29:23.870Z,66.72
2019-02-19T05:31:52.072Z,64.87
2019-02-19T05:34:20.636Z,60.25
2019-02-19T05:36:48.840Z,61.37
2019-02-19T05:39:17.029Z,57.85
2019-02-19T05:41:45.253Z,60.88
2019-02-19T05:44:13.507Z,58.38
2019-02-19T05:46:49.627Z,65.28
2019-02-19T05:49:11.642Z,58.63
2019-02-19T05:51:39.842Z,60.20
2019-02-19T05:54:08.050Z,55.23
2019-02-19T05:56:36.565Z,57.05
2019-02-19T05:59:04.765Z,50.73
2019-02-19T06:01:33.340Z,51.63
2019-02-19T06:04:01.532Z,49.77
2019-02-19T06:06:30.094Z,55.35
2019-02-19T06:08:58.304Z,54.75
2019-02-19T06:11:26.506Z,50.83
2019-02-19T06:13:54.717Z,55.28
2019-02-19T06:16:23.289Z,55.78
2019-02-19T06:18:51.482Z,49.95
2019-02-19T06:21:19.698Z,53.78
2019-02-19T06:23:47.892Z,54.33
2019-02-19T06:26:16.104Z,48.60
2019-02-19T06:28:44.297Z,51.48
2019-02-19T06:31:12.524Z,52.38
2019-02-19T06:33:40.739Z,49.58
2019-02-19T06:36:08.962Z,52.30
2019-02-19T06:38:37.145Z,54.15
2019-02-19T06:41:05.651Z,54.53
2019-02-19T06:43:33.853Z,47.53
2019-02-19T06:46:02.049Z,50.50
2019-02-19T06:48:30.251Z,52.53
2019-02-19T06:50:58.479Z,56.35
2019-02-19T06:53:27.023Z,51.58
2019-02-19T06:55:55.230Z,48.83
2019-02-19T06:58:23.426Z,54.90
2019-02-19T07:00:51.635Z,55.58
2019-02-19T07:03:21.727Z,57.73
2019-02-19T07:05:49.933Z,44.53
2019-02-19T07:08:18.430Z,46.02
2019-02-19T07:10:46.633Z,48.70
2019-02-19T07:13:14.843Z,44.88
2019-02-19T07:15:43.055Z,43.42
2019-02-19T07:18:11.256Z,48.05
2019-02-19T07:20:39.452Z,45.40
2019-02-19T07:23:07.667Z,46.80
2019-02-19T07:25:35.876Z,39.85
2019-02-19T07:28:04.439Z,40.78
2019-02-19T07:30:32.642Z,48.63
2019-02-19T07:33:01.183Z,37.85
2019-02-19T07:35:29.386Z,40.75
2019-02-19T07:37:57.616Z,44.85
2019-02-19T07:40:26.119Z,37.33
2019-02-19T07:42:54.324Z,40.73
2019-02-19T07:45:22.514Z,37.40
2019-02-19T07:47:50.717Z,43.87
2019-02-19T07:50:19.221Z,41.77
2019-02-19T07:52:47.449Z,39.85
2019-02-19T07:55:15.658Z,34.80
2019-02-19T07:57:43.873Z,38.25
2019-02-19T08:00:13.628Z,39.65
2019-02-19T08:02:41.865Z,40.95
2019-02-19T08:05:10.418Z,39.60
2019-02-19T08:07:38.620Z,39.15
2019-02-19T08:10:09.825Z,38.45
2019-02-19T08:12:38.320Z,39.13
2019-02-19T08:15:08.993Z,39.92
2019-02-19T08:17:37.200Z,39.15
2019-02-19T08:20:15.478Z,35.58
2019-02-19T08:22:36.955Z,33.83
2019-02-19T08:25:05.844Z,36.75
2019-02-19T08:27:34.351Z,35.92
2019-02-19T08:30:02.558Z,36.17
2019-02-19T08:32:30.749Z,36.85
2019-02-19T08:34:59.055Z,37.63
2019-02-19T08:37:27.270Z,33.25
2019-02-19T08:39:55.716Z,35.52
2019-02-19T08:42:23.919Z,33.48
2019-02-19T08:44:52.134Z,34.45
2019-02-19T08:47:20.324Z,33.85
2019-02-19T08:49:48.521Z,34.30
2019-02-19T08:52:18.656Z,38.05
2019-02-19T08:54:46.926Z,37.73
2019-02-19T08:57:15.152Z,35.90
2019-02-19T08:59:43.333Z,36.20
2019-02-19T09:02:11.580Z,35.13
2019-02-19T09:04:40.118Z,33.80
2019-02-19T09:07:08.706Z,34.05
2019-02-19T09:09:36.904Z,32.55
2019-02-19T09:12:05.413Z,35.43
2019-02-19T09:14:33.609Z,34.55
2019-02-19T09:17:02.173Z,35.38
2019-02-19T09:19:30.370Z,33.20
2019-02-19T09:21:58.578Z,35.15
2019-02-19T09:24:26.779Z,31.77
2019-02-19T09:26:54.997Z,33.83
2019-02-19T09:29:23.200Z,29.27
2019-02-19T09:31:51.675Z,32.40
2019-02-19T09:34:19.888Z,34.30
2019-02-19T09:36:48.096Z,27.13
2019-02-19T09:39:16.300Z,30.05
2019-02-19T09:41:44.495Z,26.48
2019-02-19T09:44:12.704Z,29.48
2019-02-19T09:46:40.903Z,25.65
2019-02-19T09:49:09.468Z,33.70
2019-02-19T09:51:37.678Z,28.35
2019-02-19T09:54:05.888Z,34.43
2019-02-19T09:56:34.159Z,23.92
2019-02-19T09:59:02.363Z,26.57
2019-02-19T10:01:30.582Z,27.15
2019-02-19T10:03:58.781Z,33.95
2019-02-19T10:06:26.995Z,26.15
2019-02-19T10:08:55.187Z,28.45
2019-02-19T10:11:23.749Z,26.48
2019-02-19T10:13:51.946Z,25.77
2019-02-19T10:16:20.143Z,25.85
2019-02-19T10:18:48.361Z,22.90
2019-02-19T10:21:16.553Z,26.15
2019-02-19T10:23:44.762Z,22.02
2019-02-19T10:26:12.970Z,26.15
2019-02-19T10:28:41.181Z,25.77
2019-02-19T10:31:09.378Z,24.87
2019-02-19T10:33:37.607Z,23.60
2019-02-19T10:36:05.796Z,29.98
2019-02-19T10:38:34.021Z,22.50
2019-02-19T10:41:02.214Z,23.67
2019-02-19T10:43:30.714Z,25.80
2019-02-19T10:45:58.920Z,26.60
2019-02-19T10:48:27.491Z,27.07
2019-02-19T10:50:55.954Z,25.12
2019-02-19T10:53:24.147Z,20.52
2019-02-19T10:55:52.361Z,25.72
2019-02-19T10:58:23.051Z,25.30
2019-02-19T11:00:50.513Z,19.73
2019-02-19T11:03:18.995Z,24.47
2019-02-19T11:05:47.219Z,22.30
2019-02-19T11:08:15.401Z,21.23
2019-02-19T11:10:43.614Z,24.07
2019-02-19T11:13:11.814Z,25.60
2019-02-19T11:15:40.020Z,26.55
2019-02-19T11:18:08.217Z,22.40
2019-02-19T11:20:36.709Z,28.75
2019-02-19T11:23:05.290Z,31.70
2019-02-19T11:25:33.505Z,25.45
2019-02-19T11:28:01.703Z,23.83
2019-02-19T11:30:29.900Z,23.45
2019-02-19T11:32:58.394Z,24.65
2019-02-19T11:35:26.895Z,30.23
2019-02-19T11:37:55.372Z,23.67
2019-02-19T11:40:23.844Z,23.80
2019-02-19T11:42:52.083Z,23.67
2019-02-19T11:45:20.607Z,22.13
2019-02-19T11:47:49.095Z,26.00
2019-02-19T11:50:17.308Z,23.15
2019-02-19T11:52:45.502Z,23.73
2019-02-19T11:55:15.954Z,25.65
2019-02-19T11:57:44.146Z,23.77
2019-02-19T12:00:16.086Z,25.30
2019-02-19T12:02:44.262Z,22.50
2019-02-19T12:05:12.463Z,29.37
2019-02-19T12:07:40.692Z,24.00
2019-02-19T12:10:09.503Z,22.65
2019-02-19T12:12:37.681Z,27.25
2019-02-19T12:15:08.679Z,21.57
2019-02-19T12:17:36.911Z,28.85
2019-02-19T12:20:06.968Z,19.45
2019-02-19T12:22:35.173Z,23.75
2019-02-19T12:25:03.447Z,25.95
2019-02-19T12:27:31.642Z,21.10
2019-02-19T12:29:59.869Z,28.62
2019-02-19T12:32:28.398Z,22.17
2019-02-19T12:34:56.610Z,26.15
2019-02-19T12:37:24.816Z,25.82
2019-02-19T12:39:53.016Z,22.80
2019-02-19T12:42:21.219Z,19.85
2019-02-19T12:44:49.416Z,25.23
2019-02-19T12:47:17.955Z,20.12
2019-02-19T12:49:46.174Z,21.97
2019-02-19T12:52:14.730Z,22.70
2019-02-19T12:54:42.919Z,26.37
2019-02-19T12:57:11.122Z,21.82
2019-02-19T12:59:39.330Z,26.52
2019-02-19T13:02:07.526Z,22.15
2019-02-19T13:04:35.754Z,31.20
2019-02-19T13:07:03.936Z,22.10
2019-02-19T13:09:32.153Z,27.22
2019-02-19T13:12:00.355Z,26.20
2019-02-19T13:14:28.554Z,37.55
2019-02-19T13:16:57.093Z,26.23
2019-02-19T13:19:25.298Z,23.50
2019-02-19T13:21:53.515Z,27.70
2019-02-19T13:24:21.728Z,29.98
2019-02-19T13:26:51.097Z,26.20
2019-02-19T13:29:19.335Z,25.45
2019-02-19T13:31:47.527Z,28.40
2019-02-19T13:34:15.736Z,22.82
2019-02-19T13:36:43.932Z,32.25
2019-02-19T13:39:12.494Z,32.08
2019-02-19T13:41:40.954Z,34.33
2019-02-19T13:44:09.154Z,26.05
2019-02-19T13:46:37.377Z,30.02
2019-02-19T13:49:11.982Z,33.08
2019-02-19T13:51:36.118Z,26.65
2019-02-19T13:54:05.963Z,24.82
2019-02-19T13:56:34.192Z,27.75
2019-02-19T13:59:02.401Z,26.87
2019-02-19T14:01:30.608Z,21.87
2019-02-19T14:03:58.815Z,31.42
2019-02-19T14:06:27.309Z,25.92
2019-02-19T14:08:55.518Z,26.62
2019-02-19T14:11:24.062Z,23.20
2019-02-19T14:13:54.188Z,27.10
2019-02-19T14:16:26.967Z,27.73
2019-02-19T14:18:56.824Z,21.97
2019-02-19T14:21:29.463Z,28.02
2019-02-19T14:23:59.310Z,22.48
2019-02-19T14:26:45.219Z,29.80
2019-02-19T14:29:30.353Z,22.35
2019-02-19T14:32:03.118Z,20.15
2019-02-19T14:34:48.293Z,18.40
2019-02-19T14:37:27.101Z,17.02
2019-02-19T14:40:10.199Z,23.57
2019-02-19T14:42:46.005Z,17.65
2019-02-19T14:45:18.798Z,19.40
2019-02-19T14:48:04.489Z,21.23
2019-02-19T14:50:37.448Z,21.68
2019-02-19T14:53:19.543Z,16.12
2019-02-19T14:56:05.624Z,19.50
2019-02-19T14:58:51.306Z,26.25
2019-02-19T15:01:21.133Z,23.87
2019-02-19T15:04:07.238Z,24.20
2019-02-19T15:06:46.570Z,14.43
2019-02-19T15:09:25.393Z,12.63
2019-02-19T15:11:55.231Z,16.10
2019-02-19T15:14:30.846Z,21.35
2019-02-19T15:17:01.974Z,11.97
2019-02-19T15:19:47.981Z,13.80
2019-02-19T15:22:17.838Z,11.97
2019-02-19T15:25:05.474Z,12.58
2019-02-19T15:27:35.316Z,16.05
2019-02-19T15:30:14.677Z,17.75
2019-02-19T15:32:44.487Z,13.85
2019-02-19T15:35:41.152Z,14.28
2019-02-19T15:38:20.255Z,20.65
2019-02-19T15:40:50.434Z,20.17
2019-02-19T15:43:32.611Z,15.55
2019-02-19T15:48:59.472Z,17.48
2019-02-19T15:51:34.995Z,23.73
2019-02-19T15:54:11.077Z,26.82
2019-02-19T15:56:55.715Z,27.30
2019-02-19T15:59:34.289Z,26.33
2019-02-19T16:02:23.160Z,27.62
2019-02-19T16:05:11.383Z,32.42
2019-02-19T16:07:47.628Z,29.92
2019-02-19T16:10:26.097Z,26.12
2019-02-19T16:13:02.593Z,29.15
2019-02-19T16:15:32.391Z,27.22
2019-02-19T16:18:18.509Z,29.25
2019-02-19T16:21:04.697Z,22.80
2019-02-19T16:23:34.529Z,25.00
2019-02-19T16:26:05.210Z,23.22
2019-02-19T16:28:43.749Z,22.52
2019-02-19T16:31:19.286Z,23.70
2019-02-19T16:33:49.447Z,23.07
2019-02-19T16:36:28.781Z,25.88
2019-02-19T16:39:01.337Z,27.20
2019-02-19T16:41:31.187Z,26.23
2019-02-19T16:44:04.090Z,23.45
2019-02-19T16:46:45.813Z,24.75
2019-02-19T16:49:15.682Z,26.97
2019-02-19T16:51:48.727Z,21.77
2019-02-19T16:54:18.865Z,28.23
2019-02-19T16:56:48.702Z,24.65
2019-02-19T16:59:34.811Z,30.85
2019-02-19T17:02:15.341Z,25.57
2019-02-19T17:04:53.923Z,30.52
2019-02-19T17:07:32.232Z,25.23
2019-02-19T17:10:20.459Z,24.70
2019-02-19T17:12:53.217Z,29.52
2019-02-19T17:15:39.403Z,26.62
2019-02-19T17:18:09.252Z,23.25
2019-02-19T17:20:39.131Z,27.87
2019-02-19T17:23:08.983Z,26.23
2019-02-19T17:25:41.499Z,31.68
2019-02-19T17:28:14.090Z,31.33
2019-02-19T17:30:43.945Z,26.37
2019-02-19T17:33:23.033Z,31.95
2019-02-19T17:35:53.296Z,31.15
2019-02-19T17:38:31.958Z,27.45
2019-02-19T17:41:09.097Z,30.72
2019-02-19T17:43:41.633Z,33.23
2019-02-19T17:46:14.543Z,26.30
2019-02-19T17:48:44.597Z,34.65
2019-02-19T17:51:14.764Z,30.77
2019-02-19T17:53:47.866Z,35.80
2019-02-19T17:56:21.102Z,27.00
2019-02-19T17:59:00.049Z,27.25
2019-02-19T18:01:40.858Z,33.70
2019-02-19T18:04:11.148Z,33.20
2019-02-19T18:06:47.153Z,28.77
2019-02-19T18:09:19.986Z,29.87
2019-02-19T18:11:55.726Z,33.18
2019-02-19T18:14:25.544Z,30.32
2019-02-19T18:17:11.757Z,30.60
2019-02-19T18:19:40.248Z,29.77
2019-02-19T18:22:08.484Z,40.65
2019-02-19T18:24:36.684Z,27.85
2019-02-19T18:27:04.982Z,29.65
2019-02-19T18:29:33.149Z,32.13
2019-02-19T18:32:01.628Z,31.55
2019-02-19T18:34:30.128Z,36.77
2019-02-19T18:36:58.332Z,31.65
2019-02-19T18:39:26.536Z,28.62
2019-02-19T18:41:54.740Z,24.82
2019-02-19T18:44:22.951Z,34.95
2019-02-19T18:46:51.151Z,30.43
2019-02-19T18:49:19.407Z,35.30
2019-02-19T18:51:47.995Z,37.35
2019-02-19T18:54:16.186Z,32.13
2019-02-19T18:56:51.328Z,35.63
2019-02-19T19:01:43.997Z,30.05
2019-02-19T19:04:12.357Z,31.48
2019-02-19T19:06:42.890Z,26.12
2019-02-19T19:09:11.099Z,35.90
2019-02-19T19:11:42.053Z,34.03
2019-02-19T19:14:10.371Z,35.43
2019-02-19T19:16:38.591Z,37.33
2019-02-19T19:19:07.187Z,27.55
2019-02-19T19:21:35.388Z,25.20
2019-02-19T19:24:03.584Z,29.02
2019-02-19T19:29:07.174Z,31.17
2019-02-19T19:31:35.729Z,28.95
2019-02-19T19:34:07.836Z,29.42
2019-02-19T19:39:04.808Z,31.20
2019-02-19T19:41:33.021Z,28.67
2019-02-19T19:44:01.214Z,33.50
2019-02-19T19:46:29.441Z,30.08
2019-02-19T19:48:57.644Z,28.40
2019-02-19T19:51:25.852Z,33.70
2019-02-19T19:53:56.604Z,28.38
2019-02-19T19:56:24.820Z,36.53
2019-02-19T19:58:53.431Z,30.55
2019-02-19T20:01:21.875Z,35.23
2019-02-19T20:03:50.040Z,23.47
2019-02-19T20:06:20.199Z,30.72
2019-02-19T20:08:48.414Z,34.78
2019-02-19T20:11:39.186Z,29.95
2019-02-19T20:14:00.064Z,32.48
2019-02-19T20:16:32.678Z,25.30
2019-02-19T20:19:02.504Z,30.43
2019-02-19T20:21:33.748Z,30.57
2019-02-19T20:24:04.862Z,36.58
2019-02-19T20:26:34.700Z,28.30
2019-02-19T20:29:11.251Z,31.87
2019-02-19T20:31:39.780Z,31.55
2019-02-19T20:34:12.299Z,33.28
2019-02-19T20:36:50.082Z,30.80
2019-02-19T20:39:15.542Z,26.77
2019-02-19T20:41:43.732Z,34.08
2019-02-19T20:44:16.089Z,34.10
2019-02-19T20:46:53.587Z,27.58
2019-02-19T20:49:19.060Z,25.55
2019-02-19T20:51:47.323Z,27.45
2019-02-19T20:54:28.379Z,26.57
2019-02-19T20:56:58.179Z,27.67
2019-02-19T20:59:26.703Z,36.75
2019-02-19T21:01:54.969Z,36.00
2019-02-19T21:04:23.180Z,33.05
2019-02-19T21:06:51.411Z,28.30
2019-02-19T21:09:19.607Z,28.98
2019-02-19T21:11:50.940Z,37.20
2019-02-19T21:14:19.136Z,37.60
2019-02-19T21:16:47.415Z,33.45
2019-02-19T21:19:15.669Z,32.65
2019-02-19T21:21:45.171Z,28.65
2019-02-19T21:24:13.532Z,33.28
2019-02-19T21:26:42.045Z,40.63
2019-02-19T21:29:10.250Z,33.70
2019-02-19T21:31:40.287Z,33.73
2019-02-19T21:34:08.368Z,30.95
2019-02-19T21:36:36.566Z,27.58
2019-02-19T21:39:05.567Z,40.52
2019-02-19T21:41:33.776Z,31.57
2019-02-19T21:44:02.037Z,35.17
2019-02-19T21:46:31.882Z,28.50
2019-02-19T21:49:00.071Z,34.60
2019-02-19T21:51:28.289Z,33.70
2019-02-19T21:53:56.495Z,38.58
2019-02-19T21:56:24.689Z,31.68
2019-02-19T21:58:52.882Z,35.50
2019-02-19T22:01:21.103Z,37.28
2019-02-19T22:03:49.312Z,33.58
2019-02-19T22:06:17.525Z,36.05
2019-02-19T22:08:45.717Z,31.90
2019-02-19T22:11:13.914Z,32.83
2019-02-19T22:13:42.137Z,32.42
2019-02-19T22:16:10.331Z,35.83
2019-02-19T22:18:38.575Z,43.98
2019-02-19T22:21:23.393Z,32.38
2019-02-19T22:23:51.652Z,32.13
2019-02-19T22:26:19.863Z,38.45
2019-02-19T22:28:48.437Z,37.53
2019-02-19T22:31:16.612Z,33.75
2019-02-19T22:33:44.828Z,40.25
2019-02-19T22:36:13.019Z,33.88
2019-02-19T22:38:41.656Z,32.53
2019-02-19T22:41:09.848Z,34.90
2019-02-19T22:43:38.090Z,39.85
2019-02-19T22:46:06.289Z,28.73
2019-02-19T22:48:34.475Z,39.18
2019-02-19T22:51:02.691Z,36.85
2019-02-19T22:53:48.905Z,31.25
2019-02-19T22:56:19.114Z,38.33
2019-02-19T22:58:47.587Z,37.50
2019-02-19T23:01:17.425Z,38.80
2019-02-19T23:03:45.614Z,35.43
2019-02-19T23:06:13.827Z,38.28
2019-02-19T23:08:42.025Z,37.48
2019-02-19T23:11:10.235Z,37.00
2019-02-19T23:13:38.625Z,37.28
2019-02-19T23:16:06.923Z,42.60
2019-02-19T23:18:35.449Z,40.83
2019-02-19T23:21:03.662Z,39.18
2019-02-19T23:23:32.334Z,38.15
2019-02-19T23:26:09.586Z,40.10
2019-02-19T23:28:40.178Z,40.70
2019-02-19T23:31:08.117Z,36.85
2019-02-19T23:33:36.311Z,36.83
2019-02-19T23:36:09.147Z,41.37
2019-02-19T23:38:37.634Z,44.50
2019-02-19T23:41:07.113Z,34.18
2019-02-19T23:43:35.728Z,37.85
2019-02-19T23:46:03.936Z,30.15
2019-02-19T23:48:32.133Z,36.05
2019-02-19T23:51:00.354Z,43.55
2019-02-19T23:53:28.547Z,34.00
2019-02-19T23:55:56.738Z,35.10
2019-02-19T23:58:25.277Z,31.37
